Time;durP1;ratioP1;P1;durP2;ratioP2;P2;SDS_P1;SDS_P2;PMS_P1;PMS_P2;Temp;Humidity;BMP_temperature;BMP_pressure;BME280_temperature;BME280_humidity;BME280_pressure;Samples;Min_cycle;Max_cycle;Signal;HPM_P1;HPM_P2
2022/09/03 00:00:55;;;;;;;64.05;31.17;;;;;;;;;;5011675;28;20549;-67
2022/09/03 00:03:39;;;;;;;73.18;33.03;;;;;;;;;;5002516;28;20363;-67
2022/09/03 00:06:20;;;;;;;63.45;31.63;;;;;;;;;;5002539;28;20053;-67
2022/09/03 00:08:58;;;;;;;62.20;30.58;;;;;;;;;;5011170;28;20041;-67
2022/09/03 00:11:31;;;;;;;61.33;30.55;;;;;;;;;;5033790;28;20026;-67
2022/09/03 00:14:10;;;;;;;64.38;27.98;;;;;;;;;;5003726;28;20109;-67
2022/09/03 00:16:43;;;;;;;64.38;29.13;;;;;;;;;;5011432;28;20022;-67
2022/09/03 00:19:10;;;;;;;57.42;28.45;;;;;;;;;;5000326;28;20034;-67
2022/09/03 00:21:39;;;;;;;60.20;29.17;;;;;;;;;;5006224;28;20019;-67
2022/09/03 00:24:08;;;;;;;63.10;31.08;;;;;;;;;;5038986;28;20038;-67
2022/09/03 00:26:35;;;;;;;60.20;30.85;;;;;;;;;;4998526;28;20030;-67
2022/09/03 00:29:15;;;;;;;73.30;31.33;;;;;;;;;;5011173;28;20049;-67
2022/09/03 00:31:50;;;;;;;62.15;29.42;;;;;;;;;;5003948;28;20026;-67
2022/09/03 00:34:30;;;;;;;59.55;29.20;;;;;;;;;;5001137;28;20443;-67
2022/09/03 00:36:56;;;;;;;71.47;30.77;;;;;;;;;;5010973;28;20502;-67
2022/09/03 00:39:24;;;;;;;60.80;31.02;;;;;;;;;;5003262;28;20026;-67
2022/09/03 00:42:08;;;;;;;54.70;29.45;;;;;;;;;;5023813;28;20030;-67
2022/09/03 00:44:43;;;;;;;62.50;29.48;;;;;;;;;;4998899;28;20034;-67
2022/09/03 00:47:10;;;;;;;67.85;30.27;;;;;;;;;;4995411;28;20455;-67
2022/09/03 00:49:41;;;;;;;61.55;27.73;;;;;;;;;;5002573;28;20105;-67
2022/09/03 00:52:17;;;;;;;64.73;29.40;;;;;;;;;;5002467;28;20077;-67
2022/09/03 00:54:46;;;;;;;56.22;27.33;;;;;;;;;;5010496;28;20026;-67
2022/09/03 00:57:15;;;;;;;59.08;27.48;;;;;;;;;;4998856;28;20010;-67
2022/09/03 00:59:56;;;;;;;56.78;27.27;;;;;;;;;;5006059;28;20042;-67
2022/09/03 01:02:37;;;;;;;50.55;24.13;;;;;;;;;;5007695;28;20069;-67
2022/09/03 01:05:03;;;;;;;57.70;27.63;;;;;;;;;;4997020;28;20425;-67
2022/09/03 01:07:30;;;;;;;52.88;26.17;;;;;;;;;;5010052;28;20478;-67
2022/09/03 01:09:59;;;;;;;49.70;26.13;;;;;;;;;;5009085;28;20034;-67
2022/09/03 01:12:31;;;;;;;55.00;26.23;;;;;;;;;;5002772;28;20037;-67
2022/09/03 01:15:03;;;;;;;50.92;26.00;;;;;;;;;;5008533;28;20042;-67
2022/09/03 01:17:36;;;;;;;52.72;26.27;;;;;;;;;;5005401;28;20041;-67
2022/09/03 01:20:14;;;;;;;52.55;25.88;;;;;;;;;;5004727;28;20038;-67
2022/09/03 01:22:49;;;;;;;53.95;27.92;;;;;;;;;;5013934;28;20061;-67
2022/09/03 01:25:34;;;;;;;49.92;27.17;;;;;;;;;;5002543;28;20465;-67
2022/09/03 01:28:08;;;;;;;60.05;28.27;;;;;;;;;;4995228;28;20383;-67
2022/09/03 01:30:38;;;;;;;48.85;26.60;;;;;;;;;;5006978;28;20026;-67
2022/09/03 01:33:11;;;;;;;46.63;25.33;;;;;;;;;;5009011;28;20037;-67
2022/09/03 01:35:43;;;;;;;47.33;25.15;;;;;;;;;;5000627;28;20072;-67
2022/09/03 01:38:22;;;;;;;57.15;26.92;;;;;;;;;;5002147;28;20034;-67
2022/09/03 01:40:57;;;;;;;48.92;26.50;;;;;;;;;;5008635;28;20158;-67
2022/09/03 01:43:40;;;;;;;49.85;25.35;;;;;;;;;;5008049;28;20026;-67
2022/09/03 01:46:06;;;;;;;;;;;;;;;;;;5003586;28;20062;-67
2022/09/03 01:48:52;;;;;;;51.10;26.00;;;;;;;;;;4999205;28;19953;-67
2022/09/03 01:51:27;;;;;;;53.60;25.88;;;;;;;;;;4994825;28;20034;-67
2022/09/03 01:54:09;;;;;;;48.40;26.45;;;;;;;;;;5001601;28;20034;-67
2022/09/03 01:56:49;;;;;;;48.20;25.48;;;;;;;;;;5011881;28;20029;-67
2022/09/03 01:59:20;;;;;;;49.55;26.48;;;;;;;;;;5012819;28;20141;-67
2022/09/03 02:02:07;;;;;;;50.00;25.55;;;;;;;;;;5011485;28;20037;-67
2022/09/03 02:04:33;;;;;;;46.35;24.15;;;;;;;;;;5008149;28;20113;-67
2022/09/03 02:07:00;;;;;;;48.55;25.15;;;;;;;;;;5001315;28;20463;-67
2022/09/03 02:09:27;;;;;;;47.50;25.02;;;;;;;;;;5000677;28;20047;-67
2022/09/03 02:11:56;;;;;;;48.20;24.77;;;;;;;;;;5007814;28;20123;-67
2022/09/03 02:14:22;;;;;;;47.17;23.38;;;;;;;;;;5008725;28;20474;-67
2022/09/03 02:16:49;;;;;;;45.58;24.10;;;;;;;;;;5012442;28;20064;-67
2022/09/03 02:19:17;;;;;;;48.95;23.80;;;;;;;;;;5012654;28;20025;-67
2022/09/03 02:21:51;;;;;;;44.08;24.65;;;;;;;;;;5012148;28;20060;-67
2022/09/03 02:24:17;;;;;;;47.40;23.10;;;;;;;;;;5008266;28;20091;-67
2022/09/03 02:26:45;;;;;;;38.10;21.42;;;;;;;;;;5012487;28;20080;-67
2022/09/03 02:29:12;;;;;;;38.03;21.20;;;;;;;;;;5012034;28;20088;-67
2022/09/03 02:31:38;;;;;;;47.50;20.48;;;;;;;;;;5012495;28;20022;-67
2022/09/03 02:34:04;;;;;;;39.50;20.60;;;;;;;;;;5011917;28;20364;-67
2022/09/03 02:36:32;;;;;;;34.60;19.23;;;;;;;;;;5006190;28;20033;-67
2022/09/03 02:38:59;;;;;;;36.78;19.48;;;;;;;;;;5012171;28;20034;-67
2022/09/03 02:41:26;;;;;;;38.10;19.13;;;;;;;;;;5001115;28;20027;-67
2022/09/03 02:44:24;;;;;;;35.55;18.50;;;;;;;;;;5007894;28;20463;-67
2022/09/03 02:46:54;;;;;;;40.55;18.42;;;;;;;;;;5001346;28;20049;-67
2022/09/03 02:49:20;;;;;;;31.75;16.13;;;;;;;;;;5001884;28;20113;-67
2022/09/03 02:51:46;;;;;;;36.38;18.20;;;;;;;;;;5006717;28;20440;-67
2022/09/03 02:54:12;;;;;;;38.08;18.45;;;;;;;;;;5007589;28;20022;-67
2022/09/03 02:56:39;;;;;;;39.05;19.70;;;;;;;;;;4997480;28;20401;-67
2022/09/03 02:59:06;;;;;;;30.45;17.67;;;;;;;;;;5004181;28;20027;-67
2022/09/03 03:01:32;;;;;;;32.50;17.83;;;;;;;;;;5004315;28;20168;-67
2022/09/03 03:03:58;;;;;;;34.63;17.75;;;;;;;;;;5009779;28;20029;-67
2022/09/03 03:06:24;;;;;;;32.10;18.23;;;;;;;;;;4995615;28;20030;-67
2022/09/03 03:08:51;;;;;;;30.48;17.60;;;;;;;;;;5006198;28;20125;-67
2022/09/03 03:11:18;;;;;;;33.45;18.58;;;;;;;;;;5001970;28;20045;-67
2022/09/03 03:13:46;;;;;;;38.05;18.77;;;;;;;;;;4999291;28;20030;-67
2022/09/03 03:16:13;;;;;;;31.75;16.30;;;;;;;;;;5006288;28;20037;-67
2022/09/03 03:18:39;;;;;;;33.28;18.48;;;;;;;;;;4997516;28;20108;-67
2022/09/03 03:21:05;;;;;;;33.30;18.33;;;;;;;;;;5006742;28;20034;-67
2022/09/03 03:23:32;;;;;;;30.83;16.83;;;;;;;;;;5003290;28;20026;-67
2022/09/03 03:26:02;;;;;;;35.88;18.08;;;;;;;;;;4997585;28;20035;-67
2022/09/03 03:28:28;;;;;;;33.35;18.45;;;;;;;;;;4997569;28;20038;-67
2022/09/03 03:30:54;;;;;;;33.35;18.27;;;;;;;;;;5006155;28;20034;-67
2022/09/03 03:33:21;;;;;;;34.03;16.92;;;;;;;;;;5001856;28;20108;-66
2022/09/03 03:35:47;;;;;;;30.10;17.17;;;;;;;;;;5001388;28;20463;-67
2022/09/03 03:38:13;;;;;;;35.17;17.00;;;;;;;;;;5011230;28;20473;-67
2022/09/03 03:40:39;;;;;;;33.85;17.58;;;;;;;;;;5012045;28;20048;-67
2022/09/03 03:43:05;;;;;;;28.52;16.30;;;;;;;;;;5002840;28;20437;-67
2022/09/03 03:45:32;;;;;;;29.35;17.48;;;;;;;;;;5004694;28;20038;-67
2022/09/03 03:47:58;;;;;;;32.55;17.10;;;;;;;;;;5009364;28;20673;-67
2022/09/03 03:50:24;;;;;;;34.85;17.23;;;;;;;;;;4998660;28;20479;-67
2022/09/03 03:52:51;;;;;;;31.88;15.77;;;;;;;;;;5012443;28;20030;-67
2022/09/03 03:55:17;;;;;;;29.80;15.57;;;;;;;;;;5002994;28;20030;-67
2022/09/03 03:57:43;;;;;;;32.85;16.27;;;;;;;;;;5003273;28;20112;-67
2022/09/03 04:00:12;;;;;;;29.35;16.00;;;;;;;;;;5000471;28;20049;-67
2022/09/03 04:02:40;;;;;;;30.17;16.50;;;;;;;;;;5009838;28;20056;-67
2022/09/03 04:05:07;;;;;;;36.75;17.92;;;;;;;;;;5015806;28;20025;-67
2022/09/03 04:07:33;;;;;;;29.10;16.60;;;;;;;;;;5004199;28;20042;-67
2022/09/03 04:09:59;;;;;;;28.00;16.55;;;;;;;;;;5014940;28;20061;-67
2022/09/03 04:12:26;;;;;;;31.55;16.45;;;;;;;;;;5013632;28;20473;-67
2022/09/03 04:14:52;;;;;;;34.72;17.52;;;;;;;;;;5012799;28;20021;-66
2022/09/03 04:17:18;;;;;;;29.52;17.02;;;;;;;;;;5014636;28;20022;-67
2022/09/03 04:19:46;;;;;;;31.27;16.35;;;;;;;;;;5014780;28;20058;-67
2022/09/03 04:22:14;;;;;;;26.13;15.60;;;;;;;;;;5007698;28;20044;-67
2022/09/03 04:24:40;;;;;;;26.50;15.93;;;;;;;;;;5013687;28;20041;-67
2022/09/03 04:27:06;;;;;;;28.63;16.33;;;;;;;;;;5014138;28;20038;-67
2022/09/03 04:29:33;;;;;;;29.42;16.60;;;;;;;;;;5014306;28;20034;-67
2022/09/03 04:34:44;;;;;;;28.17;16.20;;;;;;;;;;5015037;28;20038;-67
2022/09/03 04:37:11;;;;;;;30.85;15.85;;;;;;;;;;5008437;28;20030;-67
2022/09/03 04:39:37;;;;;;;30.73;16.30;;;;;;;;;;5002984;28;20034;-67
2022/09/03 04:42:04;;;;;;;28.00;16.05;;;;;;;;;;4999149;28;20022;-67
2022/09/03 04:44:30;;;;;;;28.45;15.18;;;;;;;;;;5005306;28;20092;-67
2022/09/03 04:46:56;;;;;;;30.20;15.60;;;;;;;;;;5001659;28;20101;-67
2022/09/03 04:49:23;;;;;;;22.60;15.05;;;;;;;;;;5002687;28;20031;-67
2022/09/03 04:51:49;;;;;;;28.30;16.33;;;;;;;;;;5036897;28;20023;-67
2022/09/03 04:54:15;;;;;;;26.33;16.08;;;;;;;;;;5006031;28;20037;-67
2022/09/03 04:56:42;;;;;;;29.88;15.07;;;;;;;;;;5006609;28;20108;-66
2022/09/03 04:59:08;;;;;;;34.70;17.35;;;;;;;;;;5002042;28;20483;-67
2022/09/03 05:01:35;;;;;;;26.92;16.25;;;;;;;;;;5011374;28;20034;-66
2022/09/03 05:04:02;;;;;;;32.90;16.65;;;;;;;;;;5009667;28;20118;-66
2022/09/03 05:06:28;;;;;;;28.35;16.33;;;;;;;;;;5002179;28;20030;-66
2022/09/03 05:08:55;;;;;;;29.83;16.38;;;;;;;;;;5003697;28;20043;-67
2022/09/03 05:11:21;;;;;;;35.70;16.63;;;;;;;;;;5007941;28;20053;-67
2022/09/03 05:13:48;;;;;;;28.58;16.73;;;;;;;;;;5003311;28;20111;-66
2022/09/03 05:16:15;;;;;;;29.10;15.85;;;;;;;;;;5006565;28;20013;-67
2022/09/03 05:18:41;;;;;;;31.13;15.43;;;;;;;;;;5013804;28;20026;-67
2022/09/03 05:21:17;;;;;;;28.63;15.70;;;;;;;;;;5012833;28;20032;-67
2022/09/03 05:23:44;;;;;;;27.27;15.35;;;;;;;;;;5006555;28;20034;-67
2022/09/03 05:26:15;;;;;;;26.27;13.85;;;;;;;;;;5010112;28;20033;-67
2022/09/03 05:28:42;;;;;;;26.38;15.40;;;;;;;;;;5004640;28;20113;-67
2022/09/03 05:31:10;;;;;;;26.02;14.80;;;;;;;;;;5014757;28;20028;-67
2022/09/03 05:33:36;;;;;;;26.67;15.38;;;;;;;;;;5011255;28;20022;-67
2022/09/03 05:36:04;;;;;;;28.42;15.60;;;;;;;;;;5008804;28;20030;-67
2022/09/03 05:38:30;;;;;;;34.13;17.60;;;;;;;;;;5010863;28;20034;-67
2022/09/03 05:41:00;;;;;;;25.63;14.63;;;;;;;;;;5006768;28;20371;-67
2022/09/03 05:43:27;;;;;;;25.73;14.93;;;;;;;;;;5006653;28;20030;-67
2022/09/03 05:45:57;;;;;;;36.83;15.95;;;;;;;;;;5008441;28;20034;-67
2022/09/03 05:48:23;;;;;;;29.80;15.65;;;;;;;;;;5011418;28;20421;-67
2022/09/03 05:50:49;;;;;;;26.30;14.52;;;;;;;;;;5007619;28;20148;-67
2022/09/03 05:53:16;;;;;;;27.75;16.40;;;;;;;;;;5004560;28;20053;-67
2022/09/03 05:55:42;;;;;;;27.00;15.02;;;;;;;;;;5005164;28;20030;-67
2022/09/03 05:58:08;;;;;;;34.00;16.45;;;;;;;;;;5007689;28;20383;-67
2022/09/03 06:00:35;;;;;;;27.30;15.77;;;;;;;;;;5010338;28;20022;-67
2022/09/03 06:03:02;;;;;;;31.27;15.82;;;;;;;;;;5010362;28;20482;-67
2022/09/03 06:05:28;;;;;;;24.95;15.13;;;;;;;;;;5013078;28;20032;-67
2022/09/03 06:07:54;;;;;;;27.85;15.57;;;;;;;;;;5007413;28;20037;-67
2022/09/03 06:10:20;;;;;;;30.13;17.27;;;;;;;;;;5009072;28;20037;-67
2022/09/03 06:12:50;;;;;;;29.70;17.48;;;;;;;;;;5007265;28;20029;-67
2022/09/03 06:15:16;;;;;;;27.73;15.48;;;;;;;;;;5005949;28;20432;-67
2022/09/03 06:17:43;;;;;;;28.15;15.75;;;;;;;;;;5008472;28;20022;-67
2022/09/03 06:20:09;;;;;;;34.63;16.92;;;;;;;;;;5010865;28;20038;-67
2022/09/03 06:22:35;;;;;;;28.65;17.20;;;;;;;;;;5003429;28;20508;-67
2022/09/03 06:25:01;;;;;;;34.28;18.00;;;;;;;;;;5013486;28;20117;-67
2022/09/03 06:27:28;;;;;;;31.15;17.65;;;;;;;;;;5007224;28;21608;-66
2022/09/03 06:29:56;;;;;;;31.08;18.27;;;;;;;;;;5007904;28;20030;-67
2022/09/03 06:32:22;;;;;;;34.22;18.27;;;;;;;;;;5008042;28;20412;-67
2022/09/03 06:34:48;;;;;;;37.10;18.85;;;;;;;;;;5004581;28;20029;-67
2022/09/03 06:37:14;;;;;;;38.17;20.40;;;;;;;;;;5005191;28;20041;-67
2022/09/03 06:39:40;;;;;;;36.58;19.65;;;;;;;;;;5008474;28;20045;-67
2022/09/03 06:42:08;;;;;;;37.67;20.50;;;;;;;;;;5005297;28;20038;-67
2022/09/03 06:44:36;;;;;;;31.20;18.33;;;;;;;;;;5013263;28;20021;-67
2022/09/03 06:47:02;;;;;;;32.42;19.42;;;;;;;;;;5003863;28;20033;-67
2022/09/03 06:49:29;;;;;;;42.92;20.65;;;;;;;;;;5007244;28;20034;-67
2022/09/03 06:51:56;;;;;;;36.47;19.70;;;;;;;;;;5004045;28;20382;-67
2022/09/03 06:54:24;;;;;;;33.90;20.02;;;;;;;;;;5014075;28;20079;-67
2022/09/03 06:56:50;;;;;;;31.70;19.52;;;;;;;;;;5006249;28;20046;-67
2022/09/03 06:59:16;;;;;;;35.10;20.10;;;;;;;;;;5004952;28;20030;-67
2022/09/03 07:01:44;;;;;;;40.42;20.25;;;;;;;;;;5011251;28;20030;-67
2022/09/03 07:04:11;;;;;;;34.70;19.83;;;;;;;;;;5014288;28;20029;-67
2022/09/03 07:06:39;;;;;;;31.92;18.48;;;;;;;;;;5016295;28;20022;-67
2022/09/03 07:09:06;;;;;;;31.13;17.92;;;;;;;;;;5018982;28;20045;-67
2022/09/03 07:11:34;;;;;;;36.92;18.73;;;;;;;;;;5010642;28;20067;-67
2022/09/03 07:14:01;;;;;;;31.42;18.17;;;;;;;;;;5014546;28;20030;-67
2022/09/03 07:16:28;;;;;;;38.03;18.55;;;;;;;;;;5008655;28;20032;-67
2022/09/03 07:18:55;;;;;;;32.55;17.33;;;;;;;;;;5010960;28;20022;-67
2022/09/03 07:21:22;;;;;;;33.05;16.73;;;;;;;;;;5029618;28;20034;-67
2022/09/03 07:23:50;;;;;;;27.58;14.98;;;;;;;;;;5006046;28;20394;-67
2022/09/03 07:26:21;;;;;;;27.85;14.65;;;;;;;;;;5007461;28;20499;-67
2022/09/03 07:28:47;;;;;;;34.03;14.82;;;;;;;;;;5017140;28;20053;-67
2022/09/03 07:31:18;;;;;;;24.52;14.20;;;;;;;;;;5009324;28;20026;-67
2022/09/03 07:33:45;;;;;;;25.50;14.93;;;;;;;;;;5012308;28;20474;-67
2022/09/03 07:36:14;;;;;;;28.13;13.65;;;;;;;;;;5027550;28;20434;-67
2022/09/03 07:38:41;;;;;;;23.60;12.65;;;;;;;;;;5011215;28;20070;-67
2022/09/03 07:41:08;;;;;;;21.98;12.45;;;;;;;;;;5000071;28;20038;-67
2022/09/03 07:43:36;;;;;;;24.90;11.73;;;;;;;;;;5012767;28;20535;-67
2022/09/03 07:46:02;;;;;;;22.77;12.07;;;;;;;;;;5008656;28;20478;-66
2022/09/03 07:48:28;;;;;;;22.73;11.40;;;;;;;;;;5002437;28;20034;-66
2022/09/03 07:50:59;;;;;;;22.45;11.30;;;;;;;;;;5014764;28;20120;-67
2022/09/03 07:53:26;;;;;;;20.02;11.10;;;;;;;;;;5005058;28;20087;-67
2022/09/03 07:55:53;;;;;;;20.38;10.00;;;;;;;;;;5008084;28;20100;-67
2022/09/03 07:58:23;;;;;;;21.98;9.65;;;;;;;;;;5017008;28;20030;-67
2022/09/03 08:00:49;;;;;;;17.90;10.25;;;;;;;;;;5012131;28;20034;-67
2022/09/03 08:03:15;;;;;;;20.27;9.82;;;;;;;;;;5009149;28;20049;-66
2022/09/03 08:05:41;;;;;;;17.75;9.70;;;;;;;;;;5013328;28;20485;-69
2022/09/03 08:08:07;;;;;;;13.95;8.45;;;;;;;;;;5009946;28;20069;-66
2022/09/03 08:10:35;;;;;;;16.48;9.95;;;;;;;;;;5009014;28;20034;-65
2022/09/03 08:13:04;;;;;;;27.10;9.50;;;;;;;;;;5001927;28;20478;-65
2022/09/03 08:15:30;;;;;;;13.02;8.02;;;;;;;;;;4999936;28;20027;-64
2022/09/03 08:17:58;;;;;;;16.60;8.27;;;;;;;;;;5002289;28;20479;-65
2022/09/03 08:20:24;;;;;;;19.30;8.07;;;;;;;;;;5006415;28;20049;-66
2022/09/03 08:22:50;;;;;;;13.07;7.72;;;;;;;;;;5004947;28;20034;-65
2022/09/03 08:25:16;;;;;;;12.55;6.88;;;;;;;;;;5008201;28;20029;-65
2022/09/03 08:27:42;;;;;;;13.35;6.45;;;;;;;;;;5009934;28;20096;-65
2022/09/03 08:30:10;;;;;;;12.88;6.10;;;;;;;;;;5007340;28;20047;-65
2022/09/03 08:32:40;;;;;;;15.63;5.70;;;;;;;;;;5008320;28;20009;-67
2022/09/03 08:35:08;;;;;;;11.20;5.15;;;;;;;;;;5002287;28;20478;-65
2022/09/03 08:37:34;;;;;;;13.93;4.75;;;;;;;;;;5002763;28;20029;-65
2022/09/03 08:40:02;;;;;;;9.25;4.53;;;;;;;;;;5005852;28;20038;-65
2022/09/03 08:42:36;;;;;;;11.98;4.60;;;;;;;;;;5004865;28;20133;-65
2022/09/03 08:45:05;;;;;;;8.65;3.58;;;;;;;;;;5008089;28;20084;-65
2022/09/03 08:47:31;;;;;;;9.13;2.80;;;;;;;;;;5008378;28;20044;-65
2022/09/03 08:50:03;;;;;;;7.68;3.25;;;;;;;;;;5012185;28;20077;-65
2022/09/03 08:52:41;;;;;;;9.88;3.38;;;;;;;;;;5008613;28;20060;-65
2022/09/03 08:55:19;;;;;;;6.43;2.95;;;;;;;;;;5005455;28;20025;-65
2022/09/03 08:57:47;;;;;;;9.02;2.80;;;;;;;;;;5006560;28;20030;-65
2022/09/03 09:00:14;;;;;;;7.15;3.03;;;;;;;;;;5007140;28;20407;-65
2022/09/03 09:02:58;;;;;;;7.72;2.55;;;;;;;;;;5004320;28;20034;-65
2022/09/03 09:05:25;;;;;;;10.35;3.05;;;;;;;;;;5003449;28;20032;-65
2022/09/03 09:07:52;;;;;;;8.52;2.70;;;;;;;;;;5008805;28;20080;-65
2022/09/03 09:10:25;;;;;;;11.90;2.88;;;;;;;;;;5007925;28;20038;-65
2022/09/03 09:12:58;;;;;;;5.65;2.88;;;;;;;;;;5001838;28;20037;-65
2022/09/03 09:15:37;;;;;;;7.28;2.72;;;;;;;;;;5004230;28;20030;-65
2022/09/03 09:18:15;;;;;;;10.05;3.00;;;;;;;;;;5001522;28;20022;-65
2022/09/03 09:20:41;;;;;;;7.97;3.08;;;;;;;;;;5000881;28;20034;-65
2022/09/03 09:23:10;;;;;;;9.55;3.53;;;;;;;;;;5008779;28;20116;-65
2022/09/03 09:25:41;;;;;;;10.88;2.80;;;;;;;;;;5008008;28;20405;-68
2022/09/03 09:28:17;;;;;;;7.28;2.47;;;;;;;;;;5008536;28;20508;-68
2022/09/03 09:30:44;;;;;;;6.68;3.08;;;;;;;;;;5006581;28;20028;-68
2022/09/03 09:33:10;;;;;;;6.60;2.60;;;;;;;;;;5005655;28;20042;-68
2022/09/03 09:35:40;;;;;;;8.48;2.58;;;;;;;;;;5001701;28;20494;-68
2022/09/03 09:38:06;;;;;;;4.55;2.38;;;;;;;;;;5004262;28;20026;-68
2022/09/03 09:40:40;;;;;;;12.77;3.08;;;;;;;;;;5003388;28;20527;-68
2022/09/03 09:43:09;;;;;;;9.40;2.50;;;;;;;;;;5009120;28;20045;-68
2022/09/03 09:45:36;;;;;;;6.20;2.20;;;;;;;;;;4999859;28;20018;-68
2022/09/03 09:48:03;;;;;;;12.93;3.75;;;;;;;;;;5005104;28;20036;-68
2022/09/03 09:50:29;;;;;;;7.43;1.95;;;;;;;;;;5005119;28;20038;-68
2022/09/03 09:53:13;;;;;;;6.78;3.17;;;;;;;;;;5008566;28;20450;-68
2022/09/03 09:55:56;;;;;;;6.28;2.45;;;;;;;;;;5005064;28;20073;-68
2022/09/03 09:58:24;;;;;;;6.20;2.50;;;;;;;;;;4999668;28;20043;-68
2022/09/03 10:01:11;;;;;;;7.25;2.38;;;;;;;;;;5004797;28;20038;-68
2022/09/03 10:03:40;;;;;;;6.35;2.50;;;;;;;;;;5023935;28;20030;-68
2022/09/03 10:09:14;;;;;;;5.38;2.15;;;;;;;;;;4999523;28;20120;-68
2022/09/03 10:11:52;;;;;;;8.98;2.20;;;;;;;;;;4998613;28;20096;-68
2022/09/03 10:14:31;;;;;;;9.00;2.10;;;;;;;;;;5001304;28;20033;-68
2022/09/03 10:17:07;;;;;;;7.60;1.85;;;;;;;;;;5007350;28;20498;-68
2022/09/03 10:19:41;;;;;;;18.77;2.72;;;;;;;;;;5005899;28;20080;-68
2022/09/03 10:22:13;;;;;;;9.52;2.42;;;;;;;;;;5007093;28;20109;-68
2022/09/03 10:24:47;;;;;;;8.40;2.30;;;;;;;;;;5001265;28;20048;-68
2022/09/03 10:27:17;;;;;;;8.68;2.47;;;;;;;;;;4995247;28;20036;-68
2022/09/03 10:29:43;;;;;;;8.45;2.28;;;;;;;;;;4998709;28;20636;-68
2022/09/03 10:32:33;;;;;;;7.68;2.25;;;;;;;;;;5008697;28;20026;-68
2022/09/03 10:35:07;;;;;;;9.13;2.08;;;;;;;;;;5003202;28;20064;-68
2022/09/03 10:37:52;;;;;;;7.90;2.25;;;;;;;;;;5002129;28;20096;-69
2022/09/03 10:40:38;;;;;;;5.63;1.83;;;;;;;;;;5000581;28;20041;-68
2022/09/03 10:43:15;;;;;;;10.82;2.58;;;;;;;;;;5004486;28;20591;-68
2022/09/03 10:45:48;;;;;;;9.27;2.63;;;;;;;;;;4997705;28;20030;-68
2022/09/03 10:48:24;;;;;;;6.07;1.80;;;;;;;;;;5000770;28;20019;-69
2022/09/03 10:50:53;;;;;;;3.95;2.10;;;;;;;;;;4999461;28;20026;-68
2022/09/03 10:53:31;;;;;;;4.07;1.70;;;;;;;;;;5000549;28;20101;-68
2022/09/03 10:56:12;;;;;;;6.68;1.83;;;;;;;;;;5023974;28;20885;-68
2022/09/03 10:58:41;;;;;;;4.15;1.70;;;;;;;;;;5001820;28;20030;-68
2022/09/03 11:01:21;;;;;;;7.50;1.85;;;;;;;;;;5003406;28;20050;-68
2022/09/03 11:03:47;;;;;;;5.25;2.05;;;;;;;;;;5006252;28;20030;-68
2022/09/03 11:06:29;;;;;;;8.70;1.85;;;;;;;;;;5007939;28;20089;-68
2022/09/03 11:09:00;;;;;;;5.97;1.67;;;;;;;;;;5009987;28;20045;-68
2022/09/03 11:11:37;;;;;;;6.73;1.90;;;;;;;;;;5002963;28;20490;-69
2022/09/03 11:14:11;;;;;;;7.15;1.90;;;;;;;;;;5005605;28;20022;-68
2022/09/03 11:16:40;;;;;;;6.47;2.17;;;;;;;;;;5005908;28;20028;-68
2022/09/03 11:19:11;;;;;;;9.35;1.70;;;;;;;;;;4999739;28;20022;-68
2022/09/03 11:21:40;;;;;;;5.05;1.83;;;;;;;;;;5009888;28;20057;-68
2022/09/03 11:24:11;;;;;;;4.72;1.90;;;;;;;;;;5004871;28;20038;-68
2022/09/03 11:26:39;;;;;;;3.67;1.95;;;;;;;;;;5001785;28;20109;-68
2022/09/03 11:29:09;;;;;;;7.53;1.73;;;;;;;;;;5007582;28;20038;-68
2022/09/03 11:31:43;;;;;;;5.90;1.98;;;;;;;;;;4995488;28;20073;-68
2022/09/03 11:34:27;;;;;;;3.75;1.60;;;;;;;;;;4994186;28;20026;-68
2022/09/03 11:37:12;;;;;;;11.13;1.60;;;;;;;;;;4994516;28;20375;-68
2022/09/03 11:39:39;;;;;;;2.17;1.33;;;;;;;;;;4996971;28;20036;-68
2022/09/03 11:42:09;;;;;;;6.80;2.10;;;;;;;;;;4997953;28;20014;-68
2022/09/03 11:44:36;;;;;;;7.40;1.48;;;;;;;;;;4999871;28;20034;-68
2022/09/03 11:47:12;;;;;;;1.60;1.20;;;;;;;;;;5004426;28;20022;-68
2022/09/03 11:49:44;;;;;;;7.07;1.70;;;;;;;;;;5004445;28;20033;-68
2022/09/03 11:52:11;;;;;;;8.32;1.90;;;;;;;;;;5006817;28;20038;-68
2022/09/03 11:54:43;;;;;;;4.55;1.60;;;;;;;;;;5005879;28;20038;-68
2022/09/03 11:57:15;;;;;;;3.80;1.42;;;;;;;;;;5003577;28;20505;-68
2022/09/03 11:59:42;;;;;;;3.80;1.50;;;;;;;;;;5005783;28;20061;-68
2022/09/03 12:02:29;;;;;;;4.85;1.95;;;;;;;;;;5006446;28;20022;-68
2022/09/03 12:05:14;;;;;;;3.10;1.67;;;;;;;;;;5009319;28;20034;-68
2022/09/03 12:07:53;;;;;;;7.25;1.98;;;;;;;;;;5009126;28;20053;-68
2022/09/03 12:10:46;;;;;;;8.00;1.67;;;;;;;;;;5007578;28;20054;-68
2022/09/03 12:13:23;;;;;;;5.95;2.00;;;;;;;;;;4964782;28;20063;-68
2022/09/03 12:16:00;;;;;;;5.53;1.73;;;;;;;;;;4964603;28;20080;-68
2022/09/03 12:18:30;;;;;;;6.25;1.60;;;;;;;;;;4966587;28;20049;-68
2022/09/03 12:20:59;;;;;;;10.07;2.08;;;;;;;;;;4966502;28;20035;-68
2022/09/03 12:23:31;;;;;;;5.90;1.65;;;;;;;;;;4968872;28;20170;-68
2022/09/03 12:25:57;;;;;;;;;;;;;;;;;;4966181;28;20042;-68
2022/09/03 12:28:24;;;;;;;5.57;2.05;;;;;;;;;;4961111;28;19910;-68
2022/09/03 12:30:52;;;;;;;2.97;1.60;;;;;;;;;;4973584;28;20114;-68
2022/09/03 12:33:18;;;;;;;4.30;1.63;;;;;;;;;;4964696;28;20611;-68
2022/09/03 12:35:55;;;;;;;6.13;1.80;;;;;;;;;;4963013;28;20114;-68
2022/09/03 12:38:25;;;;;;;4.78;1.98;;;;;;;;;;4963169;28;20031;-68
2022/09/03 12:40:52;;;;;;;4.70;1.65;;;;;;;;;;4965956;28;20035;-68
2022/09/03 12:43:18;;;;;;;6.72;1.80;;;;;;;;;;4969943;28;20041;-68
2022/09/03 12:45:46;;;;;;;6.70;1.80;;;;;;;;;;4961132;28;20099;-68
2022/09/03 12:48:14;;;;;;;6.38;1.63;;;;;;;;;;4965373;28;20028;-68
2022/09/03 12:50:41;;;;;;;5.95;1.70;;;;;;;;;;4999922;28;20045;-68
2022/09/03 12:53:09;;;;;;;5.32;1.80;;;;;;;;;;5002631;28;20027;-68
2022/09/03 12:55:55;;;;;;;6.13;1.48;;;;;;;;;;5013778;28;20029;-68
2022/09/03 12:58:49;;;;;;;7.47;1.92;;;;;;;;;;5006749;28;20045;-68
2022/09/03 13:01:38;;;;;;;4.45;1.45;;;;;;;;;;5009969;28;20022;-68
2022/09/03 13:04:19;;;;;;;2.88;1.42;;;;;;;;;;5006743;28;20037;-68
2022/09/03 13:06:45;;;;;;;6.97;1.85;;;;;;;;;;5007507;28;20453;-68
2022/09/03 13:09:12;;;;;;;9.63;1.77;;;;;;;;;;5005376;28;20041;-68
2022/09/03 13:11:39;;;;;;;4.43;1.90;;;;;;;;;;5000870;28;20073;-68
2022/09/03 13:14:08;;;;;;;4.45;1.83;;;;;;;;;;5003511;28;20073;-68
2022/09/03 13:16:38;;;;;;;12.35;2.15;;;;;;;;;;5001557;28;20109;-68
2022/09/03 13:19:07;;;;;;;6.55;1.83;;;;;;;;;;5004103;28;20042;-68
2022/09/03 13:21:33;;;;;;;6.18;1.88;;;;;;;;;;5003112;28;20034;-68
2022/09/03 13:24:18;;;;;;;7.53;1.63;;;;;;;;;;5000156;28;20038;-68
2022/09/03 13:27:04;;;;;;;11.18;1.90;;;;;;;;;;5003611;28;20164;-68
2022/09/03 13:29:31;;;;;;;6.15;2.50;;;;;;;;;;5007236;28;20087;-68
2022/09/03 13:32:03;;;;;;;6.05;1.33;;;;;;;;;;5004846;28;20391;-68
2022/09/03 13:34:37;;;;;;;6.43;1.70;;;;;;;;;;5011057;28;20030;-66
2022/09/03 13:37:06;;;;;;;8.48;1.92;;;;;;;;;;5005597;28;20820;-66
2022/09/03 13:39:36;;;;;;;4.53;2.08;;;;;;;;;;5004420;28;20030;-66
2022/09/03 13:42:06;;;;;;;3.72;1.70;;;;;;;;;;5003632;28;20021;-66
2022/09/03 13:44:36;;;;;;;3.78;1.50;;;;;;;;;;5002371;28;20113;-66
2022/09/03 13:47:21;;;;;;;5.57;2.00;;;;;;;;;;4998312;28;20030;-66
2022/09/03 13:53:00;;;;;;;5.13;1.50;;;;;;;;;;5000315;28;20053;-66
2022/09/03 13:55:26;;;;;;;8.70;2.28;;;;;;;;;;4996384;28;20074;-69
2022/09/03 13:58:01;;;;;;;4.63;1.52;;;;;;;;;;4995578;28;20080;-69
2022/09/03 14:00:31;;;;;;;4.10;1.60;;;;;;;;;;4994618;28;20054;-69
2022/09/03 14:03:15;;;;;;;9.63;3.08;;;;;;;;;;4995424;28;20027;-69
2022/09/03 14:06:14;;;;;;;4.68;1.92;;;;;;;;;;4996927;28;20715;-69
2022/09/03 14:08:56;;;;;;;8.30;1.75;;;;;;;;;;4975559;28;20079;-68
2022/09/03 14:11:34;;;;;;;4.87;1.60;;;;;;;;;;4984573;28;20247;-68
2022/09/03 14:14:18;;;;;;;4.18;2.10;;;;;;;;;;4975562;28;20507;-68
2022/09/03 14:16:49;;;;;;;8.07;2.88;;;;;;;;;;4975942;28;20088;-69
2022/09/03 14:19:32;;;;;;;10.52;2.55;;;;;;;;;;4982244;28;20038;-69
2022/09/03 14:22:01;;;;;;;3.55;1.85;;;;;;;;;;4981024;28;20118;-69
2022/09/03 14:24:30;;;;;;;4.65;1.40;;;;;;;;;;4986324;28;20027;-69
2022/09/03 14:27:01;;;;;;;2.88;1.73;;;;;;;;;;4985489;28;20117;-69
2022/09/03 14:29:32;;;;;;;5.82;1.85;;;;;;;;;;4988901;28;20400;-69
2022/09/03 14:32:16;;;;;;;5.13;1.75;;;;;;;;;;4985397;28;20046;-69
2022/09/03 14:34:46;;;;;;;8.00;1.45;;;;;;;;;;4986668;28;20022;-69
2022/09/03 14:37:28;;;;;;;5.32;1.75;;;;;;;;;;4990533;28;20113;-69
2022/09/03 14:39:54;;;;;;;;;;;;;;;;;;4988498;28;20117;-69
2022/09/03 14:42:29;;;;;;;9.43;1.92;;;;;;;;;;4986266;28;19981;-69
2022/09/03 14:44:58;;;;;;;2.33;1.55;;;;;;;;;;4995949;28;20034;-69
2022/09/03 14:47:40;;;;;;;7.63;2.17;;;;;;;;;;5009467;28;20014;-69
2022/09/03 14:50:25;;;;;;;14.47;1.90;;;;;;;;;;5008056;28;20545;-69
2022/09/03 14:52:59;;;;;;;5.43;1.50;;;;;;;;;;5014868;28;20031;-69
2022/09/03 14:55:25;;;;;;;3.47;1.77;;;;;;;;;;5007490;28;20038;-69
2022/09/03 14:58:16;;;;;;;3.42;1.45;;;;;;;;;;5014919;28;20080;-69